createdAt,value
2022-09-04T00:01:40.068Z,0.90
2022-09-04T00:04:27.001Z,0.90
2022-09-04T00:07:08.723Z,0.70
2022-09-04T00:09:43.690Z,0.80
2022-09-04T00:12:11.806Z,0.80
2022-09-04T00:14:46.415Z,0.70
2022-09-04T00:17:21.263Z,1.00
2022-09-04T00:19:56.398Z,0.90
2022-09-04T00:22:35.364Z,1.17
2022-09-04T00:25:12.106Z,0.90
2022-09-04T00:27:45.191Z,1.20
2022-09-04T00:30:19.872Z,1.25
2022-09-04T00:32:55.920Z,1.00
2022-09-04T00:35:31.363Z,1.25
2022-09-04T00:38:04.437Z,0.90
2022-09-04T00:40:35.811Z,1.17
2022-09-04T00:43:39.692Z,0.85
2022-09-04T00:46:29.810Z,1.17
2022-09-04T00:49:30.075Z,0.90
2022-09-04T00:52:12.175Z,1.20
2022-09-04T00:54:55.282Z,1.38
2022-09-04T00:58:12.657Z,1.02
2022-09-04T01:00:40.719Z,0.90
2022-09-04T01:03:39.320Z,0.98
2022-09-04T01:06:20.155Z,0.88
2022-09-04T01:09:08.260Z,1.08
2022-09-04T01:11:43.259Z,0.82
2022-09-04T01:14:19.902Z,1.13
2022-09-04T01:16:54.251Z,1.10
2022-09-04T01:19:44.291Z,0.98
2022-09-04T01:22:56.901Z,0.88
2022-09-04T01:25:35.826Z,1.15
2022-09-04T01:28:09.392Z,1.50
2022-09-04T01:30:47.159Z,1.20
2022-09-04T01:33:24.273Z,1.38
2022-09-04T01:36:02.146Z,1.00
2022-09-04T01:38:38.316Z,0.90
2022-09-04T01:41:16.664Z,1.40
2022-09-04T01:43:46.019Z,1.05
2022-09-04T01:46:33.700Z,0.90
2022-09-04T01:49:08.130Z,1.13
2022-09-04T01:51:41.638Z,1.08
2022-09-04T01:54:22.070Z,0.93
2022-09-04T01:57:00.786Z,1.25
2022-09-04T01:59:35.735Z,1.27
2022-09-04T02:02:16.228Z,1.02
2022-09-04T02:04:54.620Z,1.10
2022-09-04T02:07:31.720Z,0.85
2022-09-04T02:10:09.119Z,1.15
2022-09-04T02:12:43.201Z,0.95
2022-09-04T02:15:23.688Z,1.33
2022-09-04T02:18:02.906Z,1.00
2022-09-04T02:20:32.393Z,1.10
2022-09-04T02:23:11.811Z,1.00
2022-09-04T02:25:46.303Z,0.88
2022-09-04T02:28:30.859Z,1.20
2022-09-04T02:31:06.789Z,0.73
2022-09-04T02:33:42.998Z,1.13
2022-09-04T02:36:19.733Z,1.00
2022-09-04T02:38:57.178Z,1.00
2022-09-04T02:41:34.667Z,1.00
2022-09-04T02:44:19.883Z,1.20
2022-09-04T02:47:02.548Z,1.00
2022-09-04T02:49:41.133Z,0.70
2022-09-04T02:52:25.780Z,1.00
2022-09-04T02:55:12.384Z,0.77
2022-09-04T02:57:55.108Z,0.90
2022-09-04T03:00:26.025Z,1.02
2022-09-04T03:03:01.780Z,0.98
2022-09-04T03:05:34.472Z,0.90
2022-09-04T03:08:10.228Z,0.80
2022-09-04T03:10:45.260Z,1.00
2022-09-04T03:13:23.320Z,1.10
2022-09-04T03:15:55.719Z,1.08
2022-09-04T03:18:31.620Z,1.00
2022-09-04T03:21:06.359Z,1.25
2022-09-04T03:23:44.265Z,1.00
2022-09-04T03:26:20.862Z,0.90
2022-09-04T03:29:01.050Z,1.00
2022-09-04T03:31:34.319Z,0.80
2022-09-04T03:34:27.348Z,1.00
2022-09-04T03:37:20.680Z,1.02
2022-09-04T03:40:00.768Z,1.10
2022-09-04T03:42:39.931Z,1.10
2022-09-04T03:45:21.348Z,1.10
2022-09-04T03:48:05.747Z,1.25
2022-09-04T03:50:45.204Z,1.00
2022-09-04T03:53:21.864Z,1.08
2022-09-04T03:56:25.446Z,1.08
2022-09-04T03:59:03.126Z,1.15
2022-09-04T04:01:43.090Z,1.30
2022-09-04T04:04:52.219Z,1.40
2022-09-04T04:07:35.532Z,1.13
2022-09-04T04:10:19.612Z,1.08
2022-09-04T04:13:12.400Z,1.00
2022-09-04T04:15:52.349Z,0.90
2022-09-04T04:18:44.501Z,1.10
2022-09-04T04:21:23.617Z,0.90
2022-09-04T04:24:22.827Z,1.10
2022-09-04T04:27:07.820Z,0.80
2022-09-04T04:30:01.794Z,1.00
2022-09-04T04:32:44.126Z,1.15
2022-09-04T04:35:22.382Z,1.05
2022-09-04T04:38:01.481Z,1.35
2022-09-04T04:40:45.641Z,0.98
2022-09-04T04:43:21.216Z,0.93
2022-09-04T04:45:55.089Z,1.27
2022-09-04T04:49:05.362Z,1.00
2022-09-04T04:51:53.429Z,1.35
2022-09-04T04:54:38.883Z,1.17
2022-09-04T04:57:19.299Z,1.02
2022-09-04T04:59:55.851Z,0.98
2022-09-04T05:02:29.989Z,0.77
2022-09-04T05:05:03.665Z,1.17
2022-09-04T05:07:39.054Z,1.13
2022-09-04T05:10:17.739Z,1.05
2022-09-04T05:13:00.297Z,0.93
2022-09-04T05:15:43.802Z,1.02
2022-09-04T05:18:27.087Z,1.08
2022-09-04T05:21:00.924Z,0.95
2022-09-04T05:23:40.730Z,1.33
2022-09-04T05:26:14.519Z,0.90
2022-09-04T05:28:51.769Z,1.00
2022-09-04T05:31:29.906Z,0.93
2022-09-04T05:34:05.847Z,1.10
2022-09-04T05:36:46.027Z,0.80
2022-09-04T05:39:24.098Z,1.10
2022-09-04T05:42:06.631Z,0.90
2022-09-04T05:44:53.312Z,1.00
2022-09-04T05:47:34.363Z,0.95
2022-09-04T05:50:29.408Z,1.15
2022-09-04T05:53:15.922Z,1.10
2022-09-04T05:55:59.863Z,1.05
2022-09-04T05:58:46.291Z,1.42
2022-09-04T06:01:33.162Z,1.20
2022-09-04T06:04:22.805Z,1.17
2022-09-04T06:07:02.277Z,1.35
2022-09-04T06:09:50.876Z,1.27
2022-09-04T06:12:36.665Z,1.30
2022-09-04T06:15:15.139Z,1.25
2022-09-04T06:18:05.217Z,1.17
2022-09-04T06:20:45.533Z,1.00
2022-09-04T06:23:37.394Z,1.10
2022-09-04T06:26:28.844Z,1.50
2022-09-04T06:29:17.297Z,0.95
2022-09-04T06:32:20.618Z,1.15
2022-09-04T06:35:28.497Z,1.15
2022-09-04T06:38:13.935Z,1.73
2022-09-04T06:40:56.660Z,1.15
2022-09-04T06:43:34.746Z,1.40
2022-09-04T06:46:20.315Z,1.48
2022-09-04T06:49:00.319Z,1.33
2022-09-04T06:51:44.133Z,1.20
2022-09-04T06:54:24.027Z,0.85
2022-09-04T06:57:10.571Z,1.30
2022-09-04T07:00:03.879Z,1.00
2022-09-04T07:02:55.580Z,0.90
2022-09-04T07:05:31.046Z,0.80
2022-09-04T07:08:09.178Z,1.10
2022-09-04T07:10:41.215Z,1.00
2022-09-04T07:13:37.576Z,1.33
2022-09-04T07:16:31.291Z,1.08
2022-09-04T07:19:22.101Z,1.40
2022-09-04T07:22:03.983Z,1.27
2022-09-04T07:24:51.159Z,0.88
2022-09-04T07:27:36.398Z,1.10
2022-09-04T07:30:07.590Z,1.10
2022-09-04T07:32:39.328Z,0.90
2022-09-04T07:35:14.631Z,1.27
2022-09-04T07:37:52.621Z,0.95
2022-09-04T07:40:27.915Z,1.17
2022-09-04T07:43:06.956Z,1.00
2022-09-04T07:45:39.505Z,0.90
2022-09-04T07:48:19.651Z,1.13
2022-09-04T07:51:04.675Z,1.10
2022-09-04T07:53:50.633Z,1.55
2022-09-04T07:56:30.180Z,1.17
2022-09-04T07:59:14.256Z,1.15
2022-09-04T08:01:53.911Z,1.25
2022-09-04T08:04:40.517Z,1.17
2022-09-04T08:07:16.986Z,1.30
2022-09-04T08:10:18.489Z,0.93
2022-09-04T08:13:09.830Z,1.13
2022-09-04T08:15:43.982Z,1.02
2022-09-04T08:18:25.892Z,0.88
2022-09-04T08:21:10.136Z,1.25
2022-09-04T08:24:19.648Z,1.23
2022-09-04T08:27:06.063Z,1.23
2022-09-04T08:29:49.428Z,1.08
2022-09-04T08:32:37.174Z,1.10
2022-09-04T08:35:23.764Z,1.10
2022-09-04T08:38:08.468Z,1.10
2022-09-04T08:41:01.862Z,1.25
2022-09-04T08:43:39.674Z,1.40
2022-09-04T08:46:55.283Z,1.50
2022-09-04T08:50:14.781Z,1.20
2022-09-04T08:53:20.858Z,1.30
2022-09-04T08:55:59.896Z,1.23
2022-09-04T08:59:09.474Z,1.27
2022-09-04T09:02:30.132Z,1.33
2022-09-04T09:05:33.558Z,1.45
2022-09-04T09:08:31.413Z,1.10
2022-09-04T09:11:24.661Z,1.05
2022-09-04T09:14:25.671Z,1.33
2022-09-04T09:17:05.960Z,1.30
2022-09-04T09:19:45.602Z,0.90
2022-09-04T09:22:37.550Z,1.00
2022-09-04T09:25:20.888Z,1.00
2022-09-04T09:28:20.107Z,1.55
2022-09-04T09:31:34.556Z,1.40
2022-09-04T09:34:41.540Z,1.20
2022-09-04T09:37:35.219Z,1.10
2022-09-04T09:40:23.441Z,1.25
2022-09-04T09:43:19.069Z,0.90
2022-09-04T09:46:12.235Z,1.17
2022-09-04T09:49:15.112Z,1.02
2022-09-04T09:52:03.615Z,1.25
2022-09-04T09:55:09.035Z,0.90
2022-09-04T09:58:03.453Z,1.50
2022-09-04T10:00:39.771Z,1.35
2022-09-04T10:03:56.704Z,1.13
2022-09-04T10:07:00.349Z,1.20
2022-09-04T10:10:10.893Z,1.10
2022-09-04T10:13:09.957Z,1.20
2022-09-04T10:16:08.395Z,1.10
2022-09-04T10:18:57.203Z,1.15
2022-09-04T10:21:52.021Z,1.10
2022-09-04T10:25:04.056Z,1.08
2022-09-04T10:28:03.133Z,1.55
2022-09-04T10:30:50.163Z,1.33
2022-09-04T10:33:31.987Z,1.30
2022-09-04T10:36:19.739Z,1.20
2022-09-04T10:39:23.016Z,1.35
2022-09-04T10:42:05.560Z,1.02
2022-09-04T10:45:12.007Z,1.50
2022-09-04T10:48:12.875Z,1.02
2022-09-04T10:51:02.061Z,1.10
2022-09-04T10:54:14.182Z,1.25
2022-09-04T10:56:50.249Z,1.08
2022-09-04T10:59:44.772Z,1.10
2022-09-04T11:02:26.521Z,1.30
2022-09-04T11:05:18.965Z,1.30
2022-09-04T11:08:13.690Z,1.35
2022-09-04T11:11:03.895Z,0.90
2022-09-04T11:13:58.138Z,1.17
2022-09-04T11:16:57.403Z,1.30
2022-09-04T11:19:58.103Z,1.00
2022-09-04T11:23:01.170Z,1.35
2022-09-04T11:26:05.834Z,1.30
2022-09-04T11:29:10.997Z,1.30
2022-09-04T11:32:00.023Z,1.30
2022-09-04T11:35:00.824Z,1.10
2022-09-04T11:38:18.599Z,1.00
2022-09-04T11:41:28.307Z,1.20
2022-09-04T11:44:29.859Z,1.10
2022-09-04T11:47:31.481Z,1.00
2022-09-04T11:50:16.613Z,1.23
2022-09-04T11:53:08.131Z,1.30
2022-09-04T11:56:03.985Z,1.33
2022-09-04T11:58:52.177Z,1.13
2022-09-04T12:01:36.640Z,1.23
2022-09-04T12:04:30.637Z,1.45
2022-09-04T12:07:14.135Z,1.10
2022-09-04T12:10:02.926Z,1.38
2022-09-04T12:13:14.546Z,1.30
2022-09-04T12:16:10.811Z,1.20
2022-09-04T12:19:27.467Z,1.20
2022-09-04T12:22:50.286Z,1.50
2022-09-04T12:25:41.220Z,1.15
2022-09-04T12:28:48.938Z,1.15
2022-09-04T12:31:40.345Z,1.10
2022-09-04T12:34:27.134Z,1.55
2022-09-04T12:37:27.560Z,1.33
2022-09-04T12:40:31.758Z,1.00
2022-09-04T12:43:13.136Z,1.30
2022-09-04T12:45:49.863Z,1.20
2022-09-04T12:48:32.915Z,1.20
2022-09-04T12:51:12.107Z,1.45
2022-09-04T12:54:04.307Z,1.20
2022-09-04T12:56:49.082Z,1.30
2022-09-04T12:59:35.824Z,1.10
2022-09-04T13:02:14.131Z,1.20
2022-09-04T13:04:57.542Z,1.20
2022-09-04T13:07:44.020Z,1.20
2022-09-04T13:10:23.892Z,1.17
2022-09-04T13:13:04.056Z,1.20
2022-09-04T13:15:49.379Z,1.67
2022-09-04T13:18:43.299Z,1.20
2022-09-04T13:21:27.431Z,1.30
2022-09-04T13:24:16.068Z,1.48
2022-09-04T13:27:02.564Z,1.30
2022-09-04T13:29:44.561Z,1.20
2022-09-04T13:32:41.890Z,1.55
2022-09-04T13:35:19.520Z,1.30
2022-09-04T13:38:11.656Z,1.45
2022-09-04T13:41:09.645Z,1.33
2022-09-04T13:44:01.745Z,1.00
2022-09-04T13:46:33.979Z,1.08
2022-09-04T13:49:06.393Z,1.60
2022-09-04T13:51:39.926Z,1.58
2022-09-04T13:54:13.729Z,1.40
2022-09-04T13:56:47.055Z,1.63
2022-09-04T13:59:18.515Z,1.10
2022-09-04T14:01:52.543Z,1.60
2022-09-04T14:04:26.602Z,1.40
2022-09-04T14:07:02.471Z,1.45
2022-09-04T14:09:36.102Z,1.30
2022-09-04T14:12:23.140Z,1.10
2022-09-04T14:15:31.444Z,1.10
2022-09-04T14:18:13.520Z,1.20
2022-09-04T14:21:00.955Z,1.20
2022-09-04T14:23:42.915Z,1.35
2022-09-04T14:26:24.536Z,1.13
2022-09-04T14:28:59.394Z,1.23
2022-09-04T14:31:35.343Z,1.10
2022-09-04T14:34:17.478Z,1.30
2022-09-04T14:36:56.591Z,1.45
2022-09-04T14:39:31.509Z,0.93
2022-09-04T14:42:22.236Z,1.17
2022-09-04T14:45:01.701Z,1.23
2022-09-04T14:47:40.221Z,1.80
2022-09-04T14:50:09.853Z,1.48
2022-09-04T14:52:42.570Z,1.27
2022-09-04T14:55:16.981Z,1.48
2022-09-04T14:57:51.346Z,1.13
2022-09-04T15:00:20.902Z,1.23
2022-09-04T15:02:58.094Z,1.40
2022-09-04T15:05:31.875Z,1.10
2022-09-04T15:08:02.839Z,1.52
2022-09-04T15:10:47.603Z,1.10
2022-09-04T15:13:48.318Z,1.38
2022-09-04T15:16:24.978Z,0.85
2022-09-04T15:19:05.055Z,1.48
2022-09-04T15:21:40.628Z,1.17
2022-09-04T15:24:18.246Z,1.10
2022-09-04T15:26:55.748Z,1.17
2022-09-04T15:29:32.133Z,1.15
2022-09-04T15:32:01.846Z,1.20
2022-09-04T15:34:31.378Z,1.17
2022-09-04T15:37:12.217Z,1.48
2022-09-04T15:39:50.461Z,1.08
2022-09-04T15:42:36.144Z,1.30
2022-09-04T15:45:15.549Z,1.30
2022-09-04T15:48:06.491Z,1.52
2022-09-04T15:50:40.379Z,1.15
2022-09-04T15:53:26.414Z,1.40
2022-09-04T15:56:06.319Z,1.50
2022-09-04T15:58:41.547Z,1.40
2022-09-04T16:01:16.985Z,1.45
2022-09-04T16:04:00.169Z,1.60
2022-09-04T16:06:32.815Z,1.40
2022-09-04T16:09:06.683Z,1.33
2022-09-04T16:11:39.128Z,1.30
2022-09-04T16:14:12.749Z,1.10
2022-09-04T16:16:48.604Z,1.10
2022-09-04T16:19:25.859Z,2.08
2022-09-04T16:22:05.838Z,1.63
2022-09-04T16:24:40.008Z,1.30
2022-09-04T16:27:12.385Z,1.10
2022-09-04T16:29:46.233Z,1.10
2022-09-04T16:32:22.210Z,1.30
2022-09-04T16:34:55.150Z,2.50
2022-09-04T16:37:28.665Z,1.55
2022-09-04T16:40:04.635Z,1.40
2022-09-04T16:42:40.293Z,1.10
2022-09-04T16:45:15.451Z,1.23
2022-09-04T16:47:51.161Z,1.30
2022-09-04T16:50:25.933Z,1.35
2022-09-04T16:53:13.353Z,1.30
2022-09-04T16:55:59.317Z,1.20
2022-09-04T16:58:40.271Z,1.10
2022-09-04T17:01:16.746Z,1.20
2022-09-04T17:04:13.422Z,1.65
2022-09-04T17:06:56.379Z,1.88
2022-09-04T17:09:32.124Z,1.45
2022-09-04T17:12:17.766Z,1.33
2022-09-04T17:14:51.967Z,1.13
2022-09-04T17:17:29.990Z,1.30
2022-09-04T17:20:07.349Z,1.65
2022-09-04T17:28:19.027Z,1.38
2022-09-04T17:29:09.934Z,1.60
2022-09-04T17:29:18.800Z,1.15
2022-09-04T17:31:45.883Z,1.40
2022-09-04T17:40:31.897Z,1.48
2022-09-04T17:40:41.634Z,1.20
2022-09-04T17:40:53.764Z,1.15
2022-09-04T17:43:24.326Z,1.45
2022-09-04T17:46:07.692Z,1.10
2022-09-04T17:48:42.826Z,1.10
2022-09-04T17:51:18.856Z,1.08
2022-09-04T17:53:52.820Z,1.30
2022-09-04T17:56:25.898Z,1.52
2022-09-04T17:59:02.067Z,1.70
2022-09-04T18:01:36.600Z,1.60
2022-09-04T18:04:27.241Z,1.35
2022-09-04T18:07:39.591Z,1.40
2022-09-04T18:10:04.064Z,1.75
2022-09-04T18:12:38.827Z,1.27
2022-09-04T18:15:33.951Z,1.30
2022-09-04T18:18:11.905Z,1.40
2022-09-04T18:20:45.253Z,1.40
2022-09-04T18:23:23.160Z,1.75
2022-09-04T18:25:57.498Z,1.30
2022-09-04T18:28:33.708Z,1.70
2022-09-04T18:37:09.265Z,1.30
2022-09-04T18:37:18.792Z,1.35
2022-09-04T18:37:24.172Z,1.55
2022-09-04T18:40:03.822Z,1.70
2022-09-04T18:49:15.967Z,1.95
2022-09-04T18:50:31.399Z,1.40
2022-09-04T18:50:32.525Z,1.60
2022-09-04T18:51:30.531Z,1.85
2022-09-04T18:54:04.009Z,1.80
2022-09-04T18:56:37.797Z,2.08
2022-09-04T18:59:11.713Z,1.35
2022-09-04T19:01:44.267Z,1.70
2022-09-04T19:04:38.945Z,1.50
2022-09-04T19:07:11.700Z,1.60
2022-09-04T19:10:09.450Z,1.60
2022-09-04T19:12:47.978Z,1.70
2022-09-04T19:15:36.903Z,1.80
2022-09-04T19:18:15.126Z,1.75
2022-09-04T19:20:48.310Z,1.65
2022-09-04T19:23:26.604Z,1.60
2022-09-04T19:25:57.545Z,1.85
2022-09-04T19:28:35.680Z,1.48
2022-09-04T19:31:16.464Z,2.00
2022-09-04T19:33:50.495Z,1.73
2022-09-04T19:36:24.763Z,1.98
2022-09-04T19:44:44.513Z,1.27
2022-09-04T19:46:15.503Z,1.80
2022-09-04T19:46:16.322Z,1.77
2022-09-04T19:47:57.946Z,1.52
2022-09-04T19:53:31.358Z,2.05
2022-09-04T19:53:41.190Z,1.77
2022-09-04T19:56:31.373Z,1.85
2022-09-04T19:59:06.660Z,1.88
2022-09-04T20:01:45.753Z,1.73
2022-09-04T20:04:26.549Z,1.85
2022-09-04T20:06:59.543Z,1.85
2022-09-04T20:09:34.271Z,1.90
2022-09-04T20:12:11.879Z,2.08
2022-09-04T20:14:47.033Z,1.80
2022-09-04T20:17:30.536Z,1.88
2022-09-04T20:20:04.383Z,1.70
2022-09-04T20:22:37.741Z,1.98
2022-09-04T20:25:30.449Z,1.55
2022-09-04T20:28:08.750Z,1.80
2022-09-04T20:30:38.902Z,1.88
2022-09-04T20:33:12.544Z,1.88
2022-09-04T20:35:46.755Z,2.17
2022-09-04T20:38:24.251Z,1.67
2022-09-04T20:40:57.157Z,2.05
2022-09-04T20:43:32.256Z,1.80
2022-09-04T20:51:29.328Z,1.70
2022-09-04T20:52:50.064Z,1.90
2022-09-04T20:53:05.702Z,1.83
2022-09-04T20:55:12.666Z,1.60
2022-09-04T21:02:47.291Z,1.98
2022-09-04T21:03:14.705Z,1.83
2022-09-04T21:04:05.564Z,1.90
2022-09-04T21:06:39.804Z,1.90
2022-09-04T21:09:18.592Z,1.83
2022-09-04T21:11:51.024Z,1.60
2022-09-04T21:14:27.335Z,1.90
2022-09-04T21:17:36.118Z,1.48
2022-09-04T21:20:59.317Z,1.92
2022-09-04T21:24:03.052Z,2.03
2022-09-04T21:26:50.764Z,1.80
2022-09-04T21:29:40.610Z,1.90
2022-09-04T21:32:29.941Z,1.50
2022-09-04T21:35:07.989Z,1.75
2022-09-04T21:37:46.637Z,1.63
2022-09-04T21:40:51.034Z,1.88
2022-09-04T21:43:58.920Z,2.00
2022-09-04T21:46:43.736Z,2.13
2022-09-04T21:49:44.756Z,2.13
2022-09-04T21:52:33.099Z,1.98
2022-09-04T21:59:04.666Z,1.58
2022-09-04T22:02:42.419Z,2.10
2022-09-04T22:02:43.254Z,2.42
2022-09-04T22:04:38.587Z,1.70
2022-09-04T22:10:08.429Z,1.88
2022-09-04T22:13:30.398Z,1.73
2022-09-04T22:13:33.323Z,2.28
2022-09-04T22:16:25.988Z,1.70
2022-09-04T22:19:16.548Z,2.05
2022-09-04T22:22:03.867Z,2.20
2022-09-04T22:25:01.812Z,1.90
2022-09-04T22:28:08.293Z,1.50
2022-09-04T22:31:04.556Z,1.92
2022-09-04T22:34:16.923Z,1.58
2022-09-04T22:37:15.852Z,1.75
2022-09-04T22:40:04.705Z,1.80
2022-09-04T22:42:49.104Z,1.85
2022-09-04T22:45:49.769Z,1.95
2022-09-04T22:49:11.775Z,1.60
2022-09-04T22:52:00.990Z,1.67
2022-09-04T22:54:55.563Z,1.75
2022-09-04T22:57:31.597Z,2.40
2022-09-04T23:00:11.931Z,1.83
2022-09-04T23:03:09.111Z,1.67
2022-09-04T23:08:53.545Z,1.70
2022-09-04T23:13:59.884Z,1.88
2022-09-04T23:13:59.885Z,1.83
2022-09-04T23:16:27.750Z,1.90
2022-09-04T23:26:31.312Z,1.60
2022-09-04T23:26:39.094Z,1.65
2022-09-04T23:26:43.776Z,1.70
2022-09-04T23:28:40.428Z,2.03
2022-09-04T23:31:46.229Z,1.75
2022-09-04T23:34:39.013Z,2.20
2022-09-04T23:37:33.071Z,1.80
2022-09-04T23:40:28.479Z,1.85
2022-09-04T23:43:16.469Z,1.70
2022-09-04T23:46:32.397Z,1.55
2022-09-04T23:49:32.140Z,2.22
2022-09-04T23:52:09.019Z,2.60
2022-09-04T23:54:59.489Z,2.63
2022-09-04T23:57:30.048Z,2.13
